createdAt,value
2017-04-01T07:16:24.506Z,17312
2017-04-01T07:17:25.212Z,17728
2017-04-01T07:18:25.885Z,17536
2017-04-01T07:19:26.672Z,17216
2017-04-01T07:20:27.368Z,16992
2017-04-01T07:21:29.254Z,17376
2017-04-01T07:22:32.058Z,17152
2017-04-01T07:23:32.937Z,16576
2017-04-01T07:24:33.630Z,16480
2017-04-01T07:25:34.751Z,16224
2017-04-01T07:26:35.877Z,16256
2017-04-01T07:27:36.614Z,16352
2017-04-01T07:28:37.396Z,17056
2017-04-01T07:29:38.121Z,17056
2017-04-01T07:30:38.823Z,17120
2017-04-01T07:31:39.547Z,16352
2017-04-01T07:32:40.227Z,15364
2017-04-01T07:33:41.769Z,16640
2017-04-01T07:34:42.457Z,18016
2017-04-01T07:35:43.164Z,18400
2017-04-01T07:36:44.019Z,19008
2017-04-01T07:37:44.712Z,19648
2017-04-01T07:38:45.431Z,20256
2017-04-01T07:39:46.914Z,20704
2017-04-01T07:40:48.057Z,21248
2017-04-01T07:41:48.750Z,21440
2017-04-01T07:42:49.478Z,21376
2017-04-01T07:43:50.602Z,21696
2017-04-01T07:44:51.290Z,21760
2017-04-01T07:45:52.113Z,21376
2017-04-01T07:46:52.796Z,20928
2017-04-01T07:47:53.570Z,20512
2017-04-01T07:48:54.271Z,20992
2017-04-01T07:49:54.978Z,21088
2017-04-01T07:50:55.708Z,21312
2017-04-01T07:51:56.413Z,22080
2017-04-01T07:52:57.127Z,23040
2017-04-01T07:53:57.878Z,23680
2017-04-01T07:54:58.575Z,23936
2017-04-01T07:55:59.279Z,22816
2017-04-01T07:56:59.970Z,22912
2017-04-01T07:58:00.672Z,23072
2017-04-01T07:59:01.483Z,24384
2017-04-01T08:00:02.170Z,24480
2017-04-01T08:01:02.977Z,24512
2017-04-01T08:02:03.736Z,24512
2017-04-01T08:03:04.653Z,22656
2017-04-01T08:04:05.532Z,20896
2017-04-01T08:05:06.235Z,20320
2017-04-01T08:06:06.925Z,20160
2017-04-01T08:07:07.606Z,20704
2017-04-01T08:08:08.410Z,21664
2017-04-01T08:09:09.085Z,21696
2017-04-01T08:10:09.774Z,21504
2017-04-01T08:11:10.487Z,21184
2017-04-01T08:12:11.194Z,20032
2017-04-01T08:13:11.884Z,19136
2017-04-01T08:14:12.658Z,19232
2017-04-01T08:15:14.074Z,19584
2017-04-01T08:16:14.878Z,20288
2017-04-01T08:17:15.571Z,20800
2017-04-01T08:18:16.326Z,21632
2017-04-01T08:19:17.054Z,22784
2017-04-01T08:20:17.747Z,24384
2017-04-01T08:21:18.451Z,24096
2017-04-01T08:22:19.218Z,22656
2017-04-01T08:23:19.954Z,22816
2017-04-01T08:24:20.655Z,23648
2017-04-01T08:25:21.357Z,24800
2017-04-01T08:26:22.477Z,25056
2017-04-01T08:27:23.174Z,25280
2017-04-01T08:28:23.874Z,24032
2017-04-01T08:29:24.572Z,22176
2017-04-01T08:30:25.292Z,21312
2017-04-01T08:31:25.986Z,20288
2017-04-01T08:32:26.901Z,19360
2017-04-01T08:33:30.775Z,19392
2017-04-01T08:34:30.978Z,19200
2017-04-01T08:35:31.801Z,19072
2017-04-01T08:36:32.495Z,18976
2017-04-01T08:37:33.886Z,18912
2017-04-01T08:38:34.709Z,19168
2017-04-01T08:39:35.421Z,19808
2017-04-01T08:40:36.232Z,20224
2017-04-01T08:41:37.039Z,20544
2017-04-01T08:42:37.756Z,20544
2017-04-01T08:43:38.454Z,20960
2017-04-01T08:44:40.334Z,20832
2017-04-01T08:45:40.498Z,20032
2017-04-01T08:46:41.202Z,19360
2017-04-01T08:47:41.954Z,19360
2017-04-01T08:48:42.668Z,19104
2017-04-01T08:49:43.375Z,19296
2017-04-01T08:50:44.528Z,19552
2017-04-01T08:51:45.208Z,19616
2017-04-01T08:52:46.305Z,19136
2017-04-01T08:53:47.106Z,19168
2017-04-01T08:54:47.798Z,19200
2017-04-01T08:55:49.342Z,19296
2017-04-01T08:56:50.054Z,19680
2017-04-01T08:57:50.742Z,20032
2017-04-01T08:58:51.550Z,19936
2017-04-01T08:59:53.108Z,20000
2017-04-01T09:00:53.820Z,20448
2017-04-01T09:01:55.555Z,20992
2017-04-01T09:02:56.586Z,21888
2017-04-01T09:03:57.564Z,22592
2017-04-01T09:04:58.712Z,24000
2017-04-01T09:06:00.321Z,25856
2017-04-01T09:07:01.063Z,27168
2017-04-01T09:08:01.767Z,28288
2017-04-01T09:09:02.962Z,28672
2017-04-01T09:10:05.154Z,27200
2017-04-01T09:11:07.356Z,25728
2017-04-01T09:12:07.264Z,24992
2017-04-01T09:13:09.785Z,23936
2017-04-01T09:14:10.573Z,24000
2017-04-01T09:15:11.484Z,24416
2017-04-01T09:16:13.231Z,25312
2017-04-01T09:17:13.953Z,24896
2017-04-01T09:18:14.666Z,24352
2017-04-01T09:19:15.368Z,22848
2017-04-01T09:20:16.084Z,23680
2017-04-01T09:21:16.789Z,23808
2017-04-01T09:22:17.493Z,22752
2017-04-01T09:23:18.191Z,21856
2017-04-01T09:24:18.889Z,21664
2017-04-01T09:25:19.632Z,21536
2017-04-01T09:26:20.304Z,21472
2017-04-01T09:27:21.006Z,21792
2017-04-01T09:28:21.698Z,22560
2017-04-01T09:29:22.446Z,23552
2017-04-01T09:30:23.162Z,23936
2017-04-01T09:31:23.858Z,23456
2017-04-01T09:32:24.545Z,22528
2017-04-01T09:33:25.226Z,21536
2017-04-01T09:34:25.954Z,20288
2017-04-01T09:35:26.662Z,19264
2017-04-01T09:36:27.345Z,18912
2017-04-01T09:37:28.036Z,18976
2017-04-01T09:38:28.757Z,19008
2017-04-01T09:39:30.100Z,18880
2017-04-01T09:40:30.834Z,18720
2017-04-01T09:41:31.616Z,18752
2017-04-01T09:42:32.326Z,18880
2017-04-01T09:43:33.012Z,18848
2017-04-01T09:44:33.723Z,18816
2017-04-01T09:45:34.423Z,18816
2017-04-01T09:46:35.113Z,18816
2017-04-01T09:47:35.804Z,18848
2017-04-01T09:48:36.496Z,18784
2017-04-01T09:49:37.186Z,18656
2017-04-01T09:50:37.875Z,18528
2017-04-01T09:51:38.582Z,18560
2017-04-01T09:52:39.298Z,18720
2017-04-01T09:53:39.982Z,18944
2017-04-01T09:54:40.701Z,19136
2017-04-01T09:55:41.377Z,19328
2017-04-01T09:56:42.100Z,19488
2017-04-01T09:57:42.782Z,19520
2017-04-01T09:58:43.465Z,19648
2017-04-01T09:59:44.147Z,19712
2017-04-01T10:00:44.845Z,19648
2017-04-01T10:01:45.547Z,19392
2017-04-01T10:02:46.240Z,19104
2017-04-01T10:03:46.935Z,18848
2017-04-01T10:04:47.631Z,18784
2017-04-01T10:05:48.319Z,18592
2017-04-01T10:06:49.019Z,18496
2017-04-01T10:07:49.707Z,18528
2017-04-01T10:08:50.393Z,18464
2017-04-01T10:09:51.121Z,18496
2017-04-01T10:10:51.829Z,18528
2017-04-01T10:11:52.522Z,18752
2017-04-01T10:12:53.214Z,19232
2017-04-01T10:13:53.903Z,19520
2017-04-01T10:14:54.627Z,19424
2017-04-01T10:15:55.333Z,19264
2017-04-01T10:16:56.027Z,19136
2017-04-01T10:17:56.733Z,18816
2017-04-01T10:18:57.444Z,18560
2017-04-01T10:19:58.169Z,18560
2017-04-01T10:20:58.861Z,18752
2017-04-01T10:21:59.545Z,18720
2017-04-01T10:23:00.259Z,18592
2017-04-01T10:24:00.946Z,18464
2017-04-01T10:25:01.656Z,18208
2017-04-01T10:26:02.425Z,17856
2017-04-01T10:27:03.110Z,17264
2017-04-01T10:28:03.817Z,16560
2017-04-01T10:29:04.511Z,16420
2017-04-01T10:30:05.223Z,16764
2017-04-01T10:31:05.905Z,17168
2017-04-01T10:32:06.633Z,17688
2017-04-01T10:33:07.343Z,18432
2017-04-01T10:34:08.032Z,18496
2017-04-01T10:35:08.717Z,18144
2017-04-01T10:36:09.424Z,17704
2017-04-01T10:37:10.107Z,17404
2017-04-01T10:38:10.798Z,17048
2017-04-01T10:39:11.520Z,16868
2017-04-01T10:40:12.222Z,16504
2017-04-01T10:41:12.917Z,15944
2017-04-01T10:42:13.611Z,15372
2017-04-01T10:43:14.310Z,15296
2017-04-01T10:44:14.993Z,15396
2017-04-01T10:45:15.711Z,14892
2017-04-01T10:46:16.409Z,14556
2017-04-01T10:47:17.109Z,14268
2017-04-01T10:48:17.795Z,13948
2017-04-01T10:49:18.487Z,13932
2017-04-01T10:50:19.241Z,13692
2017-04-01T10:51:19.928Z,13504
2017-04-01T10:52:20.639Z,13212
2017-04-01T10:53:21.353Z,13316
2017-04-01T10:54:22.035Z,13448
2017-04-01T10:55:22.748Z,13652
2017-04-01T10:56:23.467Z,13564
2017-04-01T10:57:24.180Z,13392
2017-04-01T10:58:24.880Z,12936
2017-04-01T10:59:25.594Z,12668
2017-04-01T11:00:26.326Z,12628
2017-04-01T11:01:27.018Z,12444
2017-04-01T11:02:27.733Z,12424
2017-04-01T11:03:28.450Z,12580
2017-04-01T11:04:29.148Z,12396
2017-04-01T11:05:29.842Z,12152
2017-04-01T11:06:30.532Z,11832
2017-04-01T11:07:31.259Z,11544
2017-04-01T11:08:31.957Z,11436
2017-04-01T11:09:32.654Z,11100
2017-04-01T11:10:33.362Z,10904
2017-04-01T11:11:34.075Z,10896
2017-04-01T11:12:34.768Z,11212
2017-04-01T11:13:35.445Z,11408
2017-04-01T11:14:36.153Z,11412
2017-04-01T11:15:36.897Z,11280
2017-04-01T11:16:37.587Z,11152
2017-04-01T11:17:38.267Z,10988
2017-04-01T11:18:38.964Z,10748
2017-04-01T11:19:39.792Z,10604
2017-04-01T11:20:40.481Z,10352
2017-04-01T11:21:41.181Z,10048
2017-04-01T11:22:41.886Z,9924
2017-04-01T11:23:42.583Z,9776
2017-04-01T11:24:43.289Z,9768
2017-04-01T11:25:43.981Z,9772
2017-04-01T11:26:44.686Z,9644
2017-04-01T11:27:45.397Z,9508
2017-04-01T11:28:46.101Z,9184
2017-04-01T11:29:46.815Z,8772
2017-04-01T11:30:47.514Z,8940
2017-04-01T11:31:48.227Z,9116
2017-04-01T11:32:48.919Z,9152
2017-04-01T11:33:49.652Z,9088
2017-04-01T11:34:50.345Z,9344
2017-04-01T11:35:51.031Z,9644
2017-04-01T11:36:51.726Z,9808
2017-04-01T11:37:52.448Z,10004
2017-04-01T11:38:53.159Z,10088
2017-04-01T11:39:53.884Z,10164
2017-04-01T11:40:54.580Z,10136
2017-04-01T11:41:55.302Z,10132
2017-04-01T11:42:56.060Z,10080
2017-04-01T11:43:56.760Z,9984
2017-04-01T11:44:57.449Z,9764
2017-04-01T11:45:58.181Z,9536
2017-04-01T11:46:58.879Z,9356
2017-04-01T11:47:59.586Z,9088
2017-04-01T11:49:00.271Z,8948
2017-04-01T11:50:00.964Z,8824
2017-04-01T11:51:01.699Z,8732
2017-04-01T11:52:02.395Z,8660
2017-04-01T11:53:03.089Z,8496
2017-04-01T11:54:03.774Z,8392
2017-04-01T11:55:04.470Z,8324
2017-04-01T11:56:05.174Z,8332
2017-04-01T11:57:05.876Z,8360
2017-04-01T11:58:06.614Z,8340
2017-04-01T11:59:07.303Z,8200
2017-04-01T12:00:08.001Z,8104
2017-04-01T12:01:08.683Z,8208
2017-04-01T12:02:09.360Z,8264
2017-04-01T12:03:10.073Z,8240
2017-04-01T12:04:10.755Z,8244
2017-04-01T12:05:11.449Z,8232
2017-04-01T12:06:12.197Z,8204
2017-04-01T12:07:12.887Z,8168
2017-04-01T12:08:13.569Z,8232
2017-04-01T12:09:14.259Z,8280
2017-04-01T12:10:14.985Z,8292
2017-04-01T12:11:15.740Z,8272
2017-04-01T12:12:16.438Z,8312
2017-04-01T12:13:17.135Z,8260
2017-04-01T12:14:17.832Z,8072
2017-04-01T12:15:18.563Z,7844
2017-04-01T12:16:19.280Z,7760
2017-04-01T12:17:19.969Z,7712
2017-04-01T12:18:20.680Z,7560
2017-04-01T12:19:21.366Z,7616
2017-04-01T12:20:22.067Z,7840
2017-04-01T12:21:22.757Z,8228
2017-04-01T12:22:23.436Z,8632
2017-04-01T12:23:24.152Z,9004
2017-04-01T12:24:24.846Z,9256
2017-04-01T12:25:25.538Z,9428
2017-04-01T12:26:26.272Z,9488
2017-04-01T12:27:26.995Z,9508
2017-04-01T12:28:27.713Z,9452
2017-04-01T12:29:28.440Z,9396
2017-04-01T12:30:29.125Z,9368
2017-04-01T12:31:29.836Z,9332
2017-04-01T12:32:30.552Z,9312
2017-04-01T12:33:31.283Z,9324
2017-04-01T12:34:32.014Z,9356
2017-04-01T12:35:32.743Z,9412
2017-04-01T12:36:33.428Z,9476
2017-04-01T12:37:34.116Z,9576
2017-04-01T12:38:34.814Z,9688
2017-04-01T12:39:35.514Z,9840
2017-04-01T12:40:36.213Z,9960
2017-04-01T12:41:36.925Z,9964
2017-04-01T12:42:37.605Z,9984
2017-04-01T12:43:38.303Z,9936
2017-04-01T12:44:39.015Z,9904
2017-04-01T12:45:39.713Z,9808
2017-04-01T12:46:40.466Z,9708
2017-04-01T12:47:41.161Z,9628
2017-04-01T12:48:41.888Z,9544
2017-04-01T12:49:42.573Z,9548
2017-04-01T12:50:43.274Z,9588
2017-04-01T12:51:44.020Z,9748
2017-04-01T12:52:44.732Z,9972
2017-04-01T12:53:45.439Z,10176
2017-04-01T12:54:46.134Z,10388
2017-04-01T12:55:46.832Z,10648
2017-04-01T12:56:47.520Z,10812
2017-04-01T12:57:48.243Z,10840
2017-04-01T12:58:48.971Z,10944
2017-04-01T12:59:49.696Z,11280
2017-04-01T13:00:50.420Z,11468
2017-04-01T13:01:51.121Z,11552
2017-04-01T13:02:51.826Z,11588
2017-04-01T13:03:52.535Z,11612
2017-04-01T13:04:53.254Z,11736
2017-04-01T13:05:53.948Z,11968
2017-04-01T13:06:54.664Z,12184
2017-04-01T13:07:55.382Z,12368
2017-04-01T13:08:56.112Z,12560
2017-04-01T13:09:56.805Z,12724
2017-04-01T13:10:57.498Z,12932
2017-04-01T13:11:58.182Z,13088
2017-04-01T13:12:58.898Z,13192
2017-04-01T13:13:59.586Z,13264
2017-04-01T13:15:00.289Z,13352
2017-04-01T13:16:00.981Z,13392
2017-04-01T13:17:01.686Z,13380
2017-04-01T13:18:02.369Z,13292
2017-04-01T13:19:03.058Z,13192
2017-04-01T13:20:03.759Z,13068
2017-04-01T13:21:04.475Z,12944
2017-04-01T13:22:05.157Z,12836
2017-04-01T13:23:05.861Z,12772
2017-04-01T13:24:06.561Z,12712
2017-04-01T13:25:07.238Z,12644
2017-04-01T13:26:07.941Z,12588
2017-04-01T13:27:08.629Z,12524
2017-04-01T13:28:09.368Z,12432
2017-04-01T13:29:10.073Z,12396
2017-04-01T13:30:10.754Z,12484
2017-04-01T13:31:11.469Z,12556
2017-04-01T13:32:12.201Z,12572
2017-04-01T13:33:12.909Z,12556
2017-04-01T13:34:13.742Z,12512
2017-04-01T13:35:14.451Z,12428
2017-04-01T13:36:15.159Z,12304
2017-04-01T13:37:15.869Z,12144
2017-04-01T13:38:16.588Z,11988
2017-04-01T13:39:17.274Z,11888
2017-04-01T13:40:17.985Z,11852
2017-04-01T13:41:18.684Z,11860
2017-04-01T13:42:19.403Z,11864
2017-04-01T13:43:20.098Z,11872
2017-04-01T13:44:20.804Z,11912
2017-04-01T13:45:21.512Z,11984
2017-04-01T13:46:22.221Z,12012
2017-04-01T13:47:22.925Z,12020
2017-04-01T13:48:23.623Z,12060
2017-04-01T13:49:24.343Z,12056
2017-04-01T13:50:25.047Z,11956
2017-04-01T13:51:25.746Z,11864
2017-04-01T13:52:26.477Z,11872
2017-04-01T13:53:27.201Z,11928
2017-04-01T13:54:27.918Z,11968
2017-04-01T13:55:28.632Z,11992
2017-04-01T13:56:29.324Z,11940
2017-04-01T13:57:30.024Z,11832
2017-04-01T13:58:30.720Z,11724
2017-04-01T13:59:31.425Z,11684
2017-04-01T14:00:32.113Z,11664
2017-04-01T14:01:32.827Z,11616
2017-04-01T14:02:33.545Z,11520
2017-04-01T14:03:34.259Z,11472
2017-04-01T14:04:34.960Z,11436
2017-04-01T14:05:35.656Z,11432
2017-04-01T14:06:36.708Z,11428
2017-04-01T14:07:37.943Z,11404
2017-04-01T14:08:38.631Z,11412
2017-04-01T14:09:39.344Z,11460
2017-04-01T14:10:40.073Z,11464
2017-04-01T14:11:40.775Z,11464
2017-04-01T14:12:42.335Z,11504
2017-04-01T14:13:43.009Z,11536
2017-04-01T14:14:43.728Z,11532
2017-04-01T14:15:44.437Z,11580
2017-04-01T14:16:45.131Z,11704
2017-04-01T14:17:45.828Z,11824
2017-04-01T14:18:46.529Z,11912
2017-04-01T14:19:47.259Z,11960
2017-04-01T14:20:47.964Z,11992
2017-04-01T14:21:49.971Z,11980
2017-04-01T14:22:50.955Z,11920
2017-04-01T14:23:51.630Z,11820
2017-04-01T14:24:52.344Z,11716
2017-04-01T14:25:53.049Z,11628
2017-04-01T14:26:53.737Z,11572
2017-04-01T14:27:54.439Z,11524
2017-04-01T14:28:55.145Z,11468
2017-04-01T14:29:55.855Z,11452
2017-04-01T14:30:57.765Z,11464
2017-04-01T14:31:58.813Z,11480
2017-04-01T14:32:59.519Z,11468
2017-04-01T14:34:00.243Z,11404
2017-04-01T14:35:00.943Z,11356
2017-04-01T14:36:01.653Z,11288
2017-04-01T14:37:02.357Z,11300
2017-04-01T14:38:03.056Z,11340
2017-04-01T14:39:03.757Z,11320
2017-04-01T14:40:04.582Z,11148
2017-04-01T14:41:05.296Z,10880
2017-04-01T14:42:06.002Z,10664
2017-04-01T14:43:06.710Z,10548
2017-04-01T14:44:08.005Z,10536
2017-04-01T14:45:09.365Z,10460
2017-04-01T14:46:10.125Z,10356
2017-04-01T14:47:10.826Z,10288
2017-04-01T14:48:11.522Z,10264
2017-04-01T14:49:12.236Z,10212
2017-04-01T14:50:12.915Z,10104
2017-04-01T14:51:13.616Z,9940
2017-04-01T14:52:14.308Z,9780
2017-04-01T14:53:15.010Z,9652
2017-04-01T14:54:15.710Z,9508
2017-04-01T14:55:16.413Z,9408
2017-04-01T14:56:17.126Z,9416
2017-04-01T14:57:17.815Z,9528
2017-04-01T14:58:18.504Z,9724
2017-04-01T14:59:19.208Z,9716
2017-04-01T15:00:19.971Z,9612
2017-04-01T15:01:20.702Z,9560
2017-04-01T15:02:21.394Z,9508
2017-04-01T15:03:22.141Z,9220
2017-04-01T15:04:22.959Z,8840
2017-04-01T15:05:23.897Z,8520
2017-04-01T15:06:24.623Z,8336
2017-04-01T15:07:25.319Z,8220
2017-04-01T15:08:26.026Z,8136
2017-04-01T15:09:26.709Z,8076
2017-04-01T15:10:27.416Z,8076
2017-04-01T15:11:28.116Z,8112
2017-04-01T15:12:28.828Z,8156
2017-04-01T15:13:29.547Z,8224
2017-04-01T15:14:30.258Z,8300
2017-04-01T15:15:31.008Z,8376
2017-04-01T15:16:31.717Z,8468
2017-04-01T15:17:32.446Z,8576
2017-04-01T15:18:33.135Z,8680
2017-04-01T15:19:33.864Z,8772
2017-04-01T15:20:34.558Z,8828
2017-04-01T15:21:35.267Z,8844
2017-04-01T15:22:35.961Z,8896
2017-04-01T15:23:36.662Z,9016
2017-04-01T15:24:37.361Z,9148
2017-04-01T15:25:38.055Z,9208
2017-04-01T15:26:38.735Z,9228
2017-04-01T15:27:39.424Z,9188
2017-04-01T15:28:40.127Z,9092
2017-04-01T15:29:40.814Z,8944
2017-04-01T15:30:41.536Z,8732
2017-04-01T15:31:42.222Z,8420
2017-04-01T15:32:42.910Z,8124
2017-04-01T15:33:43.608Z,7936
2017-04-01T15:34:44.305Z,7800
2017-04-01T15:35:44.997Z,7644
2017-04-01T15:36:45.696Z,7444
2017-04-01T15:37:46.394Z,7228
2017-04-01T15:38:47.096Z,6992
2017-04-01T15:39:47.795Z,6744
2017-04-01T15:40:48.523Z,6468
2017-04-01T15:41:49.222Z,6188
2017-04-01T15:42:49.919Z,5940
2017-04-01T15:43:50.623Z,5784
2017-04-01T15:44:51.326Z,5716
2017-04-01T15:45:52.071Z,5688
2017-04-01T15:46:53.355Z,5624
2017-04-01T15:47:53.984Z,5552
2017-04-01T15:48:54.666Z,5540
2017-04-01T15:49:55.367Z,5484
2017-04-01T15:50:56.050Z,5316
2017-04-01T15:51:56.854Z,5148
2017-04-01T15:52:57.550Z,5116
2017-04-01T15:53:58.255Z,5124
2017-04-01T15:54:58.941Z,5208
2017-04-01T15:55:59.646Z,5268
2017-04-01T15:57:00.319Z,5284
2017-04-01T15:58:01.041Z,5180
2017-04-01T15:59:01.796Z,5044
2017-04-01T16:00:02.545Z,4976
2017-04-01T16:01:03.252Z,5004
2017-04-01T16:02:03.948Z,5056
2017-04-01T16:03:04.656Z,5048
2017-04-01T16:04:05.346Z,5000
2017-04-01T16:05:06.065Z,4920
2017-04-01T16:06:06.777Z,4860
2017-04-01T16:07:07.469Z,4832
2017-04-01T16:08:08.231Z,4824
2017-04-01T16:09:08.918Z,4820
2017-04-01T16:10:09.638Z,4796
2017-04-01T16:11:10.337Z,4776
2017-04-01T16:12:11.028Z,4736
2017-04-01T16:13:11.737Z,4600
2017-04-01T16:14:12.439Z,4404
2017-04-01T16:15:13.149Z,4224
2017-04-01T16:16:13.826Z,4088
2017-04-01T16:17:14.730Z,4040
2017-04-01T16:18:15.422Z,4000
2017-04-01T16:19:16.143Z,3956
2017-04-01T16:20:16.865Z,3896
2017-04-01T16:21:17.593Z,3836
2017-04-01T16:22:18.323Z,3788
2017-04-01T16:23:19.133Z,3796
2017-04-01T16:24:19.873Z,3784
2017-04-01T16:25:20.573Z,3776
2017-04-01T16:26:21.266Z,3756
2017-04-01T16:27:22.182Z,3712
2017-04-01T16:28:22.877Z,3640
2017-04-01T16:29:23.578Z,3540
2017-04-01T16:30:24.362Z,3416
2017-04-01T16:31:25.053Z,3284
2017-04-01T16:32:25.905Z,3132
2017-04-01T16:33:26.591Z,2984
2017-04-01T16:34:27.418Z,2844
2017-04-01T16:35:28.167Z,2708
2017-04-01T16:36:28.879Z,2596
2017-04-01T16:37:29.604Z,2524
2017-04-01T16:38:30.299Z,2492
2017-04-01T16:39:31.002Z,2488
2017-04-01T16:40:31.704Z,2492
2017-04-01T16:41:32.386Z,2496
2017-04-01T16:42:33.208Z,2496
2017-04-01T16:43:33.904Z,2484
2017-04-01T16:44:34.604Z,2492
2017-04-01T16:45:35.312Z,2524
2017-04-01T16:46:36.284Z,2540
2017-04-01T16:47:36.998Z,2548
2017-04-01T16:48:37.709Z,2556
2017-04-01T16:49:38.422Z,2560
2017-04-01T16:50:39.256Z,2556
2017-04-01T16:51:39.974Z,2524
2017-04-01T16:52:40.646Z,2488
2017-04-01T16:53:41.337Z,2444
2017-04-01T16:54:42.037Z,2400
2017-04-01T16:55:42.736Z,2348
2017-04-01T16:56:43.448Z,2296
2017-04-01T16:57:44.147Z,2240
2017-04-01T16:58:44.853Z,2176
2017-04-01T16:59:45.625Z,2104
2017-04-01T17:00:46.310Z,2028
2017-04-01T17:01:47.024Z,1964
2017-04-01T17:02:47.716Z,1900
2017-04-01T17:03:48.454Z,1840
2017-04-01T17:04:49.146Z,1780
2017-04-01T17:05:49.840Z,1724
2017-04-01T17:06:50.546Z,1676
2017-04-01T17:07:51.282Z,1624
2017-04-01T17:08:52.010Z,1572
2017-04-01T17:09:52.697Z,1520
2017-04-01T17:10:53.412Z,1484
2017-04-01T17:11:54.108Z,1464
2017-04-01T17:12:54.797Z,1456
2017-04-01T17:13:55.503Z,1452
2017-04-01T17:14:56.204Z,1444
2017-04-01T17:15:56.899Z,1432
2017-04-01T17:16:57.593Z,1416
2017-04-01T17:17:58.306Z,1396
2017-04-01T17:18:58.999Z,1368
2017-04-01T17:19:59.682Z,1336
2017-04-01T17:21:00.369Z,1320
2017-04-01T17:22:01.068Z,1296
2017-04-01T17:23:01.771Z,1276
2017-04-01T17:24:02.459Z,1248
2017-04-01T17:25:03.177Z,1216
2017-04-01T17:26:03.876Z,1176
2017-04-01T17:27:04.562Z,1116
2017-04-01T17:28:05.269Z,1040
2017-04-01T17:29:05.949Z,976
2017-04-01T17:30:06.635Z,920
2017-04-01T17:31:07.335Z,872
2017-04-01T17:32:08.065Z,824
2017-04-01T17:33:08.784Z,780
2017-04-01T17:34:09.473Z,736
2017-04-01T17:35:10.212Z,692
2017-04-01T17:36:10.905Z,644
2017-04-01T17:37:11.594Z,596
2017-04-01T17:38:12.282Z,556
2017-04-01T17:39:12.975Z,520
2017-04-01T17:40:13.654Z,484
2017-04-01T17:41:14.375Z,444
2017-04-01T17:42:15.083Z,412
2017-04-01T17:43:15.770Z,376
2017-04-01T17:44:16.458Z,344
2017-04-01T17:45:17.159Z,312
2017-04-01T17:46:17.851Z,284
2017-04-01T17:47:18.532Z,252
2017-04-01T17:48:19.222Z,228
2017-04-01T17:49:19.905Z,200
2017-04-01T17:50:20.594Z,176
2017-04-01T17:51:21.300Z,148
2017-04-01T17:52:21.986Z,128
2017-04-01T17:53:22.691Z,112
2017-04-01T17:54:23.389Z,92
2017-04-01T17:55:24.084Z,84
2017-04-01T17:56:24.783Z,72
2017-04-01T17:57:25.478Z,64
2017-04-01T17:58:26.181Z,56
2017-04-01T17:59:26.871Z,52
2017-04-01T18:00:27.549Z,48
2017-04-01T18:01:28.429Z,44
2017-04-01T18:02:29.225Z,36
2017-04-01T18:03:30.020Z,32
2017-04-01T18:04:30.826Z,28
2017-04-01T18:05:31.527Z,24
2017-04-01T18:06:32.228Z,20
2017-04-01T18:07:33.019Z,16
2017-04-01T18:08:33.867Z,12
2017-04-01T18:09:34.729Z,12
2017-04-01T18:10:35.546Z,12
2017-04-01T18:11:36.347Z,12
2017-04-01T18:12:37.047Z,8
2017-04-01T18:13:37.800Z,8
2017-04-01T18:14:38.572Z,4
2017-04-01T18:15:39.312Z,8
2017-04-01T18:16:40.001Z,4
2017-04-01T18:17:40.691Z,4
2017-04-01T18:18:41.393Z,4
2017-04-01T18:19:42.085Z,4
2017-04-01T18:20:42.790Z,4
2017-04-01T18:21:44.519Z,4
2017-04-01T18:22:45.612Z,4
2017-04-01T18:23:46.296Z,0
2017-04-01T18:24:46.988Z,0
2017-04-01T18:25:47.685Z,0
2017-04-01T18:26:48.380Z,0
2017-04-01T18:27:49.057Z,0
2017-04-01T18:28:50.860Z,0
2017-04-01T18:29:51.565Z,0
2017-04-01T18:30:52.286Z,0
2017-04-01T18:31:53.107Z,0
2017-04-01T18:32:53.919Z,0
2017-04-01T18:33:54.610Z,0
2017-04-01T18:34:55.435Z,0
2017-04-01T18:35:56.140Z,0
2017-04-01T18:36:57.326Z,0
2017-04-01T18:37:58.335Z,0
2017-04-01T18:38:59.022Z,0
2017-04-01T18:39:59.725Z,0
2017-04-01T18:41:00.573Z,0
2017-04-01T18:42:01.264Z,0
2017-04-01T18:43:02.012Z,0
2017-04-01T18:44:02.722Z,0
2017-04-01T18:45:03.410Z,0
2017-04-01T18:46:04.424Z,0
2017-04-01T18:47:05.105Z,0
2017-04-01T18:48:05.814Z,0
2017-04-01T18:49:06.680Z,0
2017-04-01T18:50:07.369Z,0
2017-04-01T18:51:08.076Z,0
2017-04-01T18:52:08.856Z,0
2017-04-01T18:53:09.567Z,0
2017-04-01T18:54:10.258Z,0
2017-04-01T18:55:10.989Z,0
2017-04-01T18:56:11.710Z,0
2017-04-01T18:57:12.417Z,0
2017-04-01T18:58:13.099Z,0
2017-04-01T18:59:13.985Z,0
2017-04-01T19:00:14.682Z,0
2017-04-01T19:01:15.362Z,0
2017-04-01T19:02:16.070Z,0
2017-04-01T19:03:16.761Z,0
2017-04-01T19:04:17.455Z,0
2017-04-01T19:05:18.192Z,0
2017-04-01T19:06:19.168Z,0
2017-04-01T19:07:20.147Z,0
2017-04-01T19:08:21.078Z,0
2017-04-01T19:09:21.763Z,0
2017-04-01T19:10:22.450Z,0
2017-04-01T19:11:23.161Z,0
2017-04-01T19:12:23.921Z,0
2017-04-01T19:13:24.956Z,0
2017-04-01T19:14:25.636Z,0
2017-04-01T19:15:26.324Z,0
2017-04-01T19:16:27.033Z,0
2017-04-01T19:17:27.745Z,0
2017-04-01T19:18:28.495Z,0
2017-04-01T19:19:29.232Z,0
2017-04-01T19:20:29.929Z,0
2017-04-01T19:21:30.655Z,0
2017-04-01T19:22:31.405Z,0
2017-04-01T19:23:32.100Z,0
2017-04-01T19:24:32.968Z,0
2017-04-01T19:25:33.660Z,0
2017-04-01T19:26:34.337Z,0
2017-04-01T19:27:35.032Z,0
2017-04-01T19:28:35.759Z,0
2017-04-01T19:29:36.455Z,0
2017-04-01T19:30:37.146Z,0
2017-04-01T19:31:37.841Z,0
2017-04-01T19:32:38.611Z,0
2017-04-01T19:33:39.306Z,0
2017-04-01T19:34:39.990Z,0
2017-04-01T19:35:40.695Z,0
2017-04-01T19:36:41.391Z,0
2017-04-01T19:37:42.114Z,0
2017-04-01T19:38:42.805Z,0
2017-04-01T19:39:43.534Z,0
2017-04-01T19:40:44.228Z,0
2017-04-01T19:41:44.910Z,0
2017-04-01T19:42:45.595Z,0
2017-04-01T19:43:46.308Z,0
2017-04-01T19:44:47.064Z,0
2017-04-01T19:45:47.758Z,0
2017-04-01T19:46:48.429Z,0
2017-04-01T19:47:49.117Z,0
2017-04-01T19:48:49.809Z,0
2017-04-01T19:49:50.536Z,0
2017-04-01T19:50:51.216Z,0
2017-04-01T19:51:51.906Z,0
2017-04-01T19:52:52.586Z,0
2017-04-01T19:53:53.272Z,0
2017-04-01T19:54:53.961Z,0
2017-04-01T19:55:54.664Z,0
2017-04-01T19:56:55.349Z,0
2017-04-01T19:57:56.063Z,0
2017-04-01T19:58:56.759Z,0
2017-04-01T19:59:57.457Z,0
2017-04-01T20:00:58.137Z,0
2017-04-01T20:01:58.825Z,0
2017-04-01T20:02:59.525Z,0
2017-04-01T20:04:00.209Z,0
2017-04-01T20:05:00.937Z,0
2017-04-01T20:06:01.634Z,0
2017-04-01T20:07:02.325Z,0
2017-04-01T20:08:03.025Z,0
2017-04-01T20:09:03.729Z,0
2017-04-01T20:10:04.829Z,0
2017-04-01T20:11:05.516Z,0
2017-04-01T20:12:06.192Z,0
2017-04-01T20:13:06.892Z,0
2017-04-01T20:14:07.582Z,0
2017-04-01T20:15:08.280Z,0
2017-04-01T20:16:09.077Z,0
2017-04-01T20:17:09.791Z,0
2017-04-01T20:18:10.475Z,0
2017-04-01T20:19:12.143Z,0
2017-04-01T20:20:12.159Z,0
2017-04-01T20:21:12.872Z,0
2017-04-01T20:22:13.647Z,0
2017-04-01T20:23:14.398Z,0
2017-04-01T20:24:15.090Z,0
2017-04-01T20:25:15.794Z,0
2017-04-01T20:26:16.473Z,0
2017-04-01T20:27:17.141Z,0
2017-04-01T20:28:17.865Z,0
2017-04-01T20:29:18.612Z,0
2017-04-01T20:30:19.369Z,0
2017-04-01T20:31:20.048Z,0
2017-04-01T20:32:20.715Z,0
2017-04-01T20:33:21.411Z,0
2017-04-01T20:34:22.115Z,0
2017-04-01T20:35:22.885Z,0
2017-04-01T20:36:23.574Z,0
2017-04-01T20:37:24.310Z,0
2017-04-01T20:38:24.991Z,0
2017-04-01T20:39:25.856Z,0
2017-04-01T20:40:26.574Z,0
2017-04-01T20:41:27.290Z,0
2017-04-01T20:42:28.001Z,0
2017-04-01T20:43:28.827Z,0
2017-04-01T20:44:29.679Z,0
2017-04-01T20:45:30.368Z,0
2017-04-01T20:46:31.092Z,0
2017-04-01T20:47:31.814Z,0
2017-04-01T20:48:32.503Z,0
2017-04-01T20:49:33.211Z,0
2017-04-01T20:50:33.886Z,0